Hartland Point — ZIQS6 — position and weather

sailwx.info

Track history (hours):
 
Tides and Currents Weather Stations Pressure Air Temp Water Temp Dewpoint Dewpoint Depression Visibility Wind Speed Wind Dir Waves Ship Positions

Hartland Point

Last reported at 2016-Jun-27 02:12 UTC. Time now 2016-Jun-29 22:00 UTC.
Position N 31°20' E 032°23'.

Length 193 m; draft 6 m.

Type: Ship. MMSI: 235505000.

Date/timePositionNaut miles runAvg speedWind from/ knotsBaromVisibWave heightAir tempDewpointWater temp
2016-Jun-27 02:12N 31°20' E 032°23'4 5.7
2016-Jun-27 01:33N 31°23' E 032°21'4 0.9
2016-Jun-26 21:32N 31°24' E 032°17'0 0.0
2016-Jun-26 20:04N 31°24' E 032°17'0 0.0
2016-Jun-26 16:32N 31°24' E 032°17'3 3.1
2016-Jun-26 15:34N 31°27' E 032°17'1312.9
2016-Jun-26 14:33N 31°38' E 032°25'1010.3
2016-Jun-26 13:34N 31°43' E 032°36'1110.5
2016-Jun-26 12:33N 31°53' E 032°37'1110.5
2016-Jun-26 11:33N 32°04' E 032°39'3110.3
2016-Jun-26 08:33N 32°34' E 032°46'1510.4
2016-Jun-26 07:07N 32°49' E 032°49'610.2
2016-Jun-26 06:34N 32°55' E 032°50'1010.2
2016-Jun-26 05:33N 33°05' E 032°52'1010.3
2016-Jun-26 04:33N 33°15' E 032°54'1010.3
2016-Jun-26 03:33N 33°25' E 032°56'1110.5
2016-Jun-26 02:32N 33°36' E 032°58'1110.7
2016-Jun-26 01:33N 33°46' E 033°00'1110.7
2016-Jun-26 00:33N 33°56' E 033°02'1110.8
2016-Jun-25 23:31N 34°07' E 033°05'1010.9
2016-Jun-25 22:34N 34°18' E 033°07'1110.7
2016-Jun-25 21:33N 34°28' E 033°09'10 9.6
2016-Jun-25 20:33N 34°37' E 033°05'4 0.5
2016-Jun-25 13:15N 34°39' E 033°01'0 0.0
2016-Jun-25 12:34N 34°39' E 033°01'8 8.4
2016-Jun-25 11:33N 34°35' E 033°10'1413.9
2016-Jun-25 10:33N 34°30' E 032°55'1615.5
2016-Jun-25 09:33N 34°30' E 032°36'1615.8
2016-Jun-25 08:33N 34°31' E 032°16'1615.8
2016-Jun-25 07:33N 34°31' E 031°57'1918.6
2016-Jun-25 06:33N 34°32' E 031°35'2019.4
2016-Jun-25 05:32N 34°32' E 031°11'12419.6
2016-Jun-24 23:11N 34°35' E 028°40'1219.2
2016-Jun-24 22:33N 34°35' E 028°25'4019.4
2016-Jun-24 20:31N 34°36' E 027°37'1919.7
2016-Jun-24 19:33N 34°36' E 027°14'40017.3
2016-Jun-23 20:30N 35°34' E 019°11'20919.1
2016-Jun-23 09:33N 36°20' E 014°59'1919.2
2016-Jun-23 08:33N 36°24' E 014°36'2019.6
2016-Jun-23 07:33N 36°30' E 014°13'3919.6
2016-Jun-23 05:33N 36°42' E 013°26'2119.7
2016-Jun-23 04:29N 36°47' E 013°01'1819.3
2016-Jun-23 03:33N 36°52' E 012°39'36319.1
2016-Jun-22 08:33N 37°31' E 005°06'1918.8
2016-Jun-22 07:32N 37°27' E 004°42'6019.0
2016-Jun-22 04:23N 37°16' E 003°28'2019.2
2016-Jun-22 03:21N 37°12' E 003°04'1519.0
2016-Jun-22 02:33N 37°09' E 002°45'2018.9
2016-Jun-22 01:31N 37°05' E 002°21'1818.8
2016-Jun-22 00:33N 37°02' E 001°59'2019.2
2016-Jun-21 23:31N 36°58' E 001°34'1918.4
2016-Jun-21 22:29N 36°54' E 001°11'1718.1
2016-Jun-21 21:33N 36°51' E 000°50'1817.8
2016-Jun-21 20:33N 36°47' E 000°29'1817.6
2016-Jun-21 19:32N 36°43' E 000°07'1817.9
2016-Jun-21 18:32N 36°40' W 000°15'1918.2
2016-Jun-21 17:31N 36°37' W 000°38'1916.4
2016-Jun-21 16:23N 36°33' W 001°01'1313.0
2016-Jun-21 15:24N 36°31' W 001°16'3411.9
2016-Jun-21 12:33N 36°24' W 001°58'1511.7
2016-Jun-21 11:14N 36°22' W 002°17'5 7.5
2016-Jun-21 10:33N 36°21' W 002°23'8 7.4
2016-Jun-21 09:31N 36°20' W 002°32'12917.8
2016-Jun-21 02:14N 36°00' W 005°11'1319.8
2016-Jun-21 01:33N 35°57' W 005°27'1616.4
2016-Jun-21 00:34N 35°53' W 005°46'8917.0
2016-Jun-20 19:19N 36°09' W 007°35'1518.5
2016-Jun-20 18:30N 36°13' W 007°53'1718.5
2016-Jun-20 17:34N 36°19' W 008°13'1818.4
2016-Jun-20 16:34N 36°24' W 008°35'1312.6
2016-Jun-20 15:33N 36°27' W 008°50'8 8.0
2016-Jun-20 14:33N 36°30' W 008°60'1716.6
2016-Jun-20 13:34N 36°35' W 009°19'1818.1
2016-Jun-20 12:34N 36°49' W 009°34'1918.7
2016-Jun-20 11:34N 37°07' W 009°39'1817.4
2016-Jun-20 10:33N 37°24' W 009°44'1413.9
2016-Jun-20 09:33N 37°38' W 009°47'1818.7
2016-Jun-20 08:33N 37°56' W 009°53'1918.5
2016-Jun-20 07:33N 38°14' W 010°00'1818.4
2016-Jun-20 06:33N 38°32' W 010°04'1818.4
2016-Jun-20 05:33N 38°50' W 010°08'2018.6
2016-Jun-20 04:30N 39°10' W 010°08'64118.3
2016-Jun-18 17:25N 49°26' W 006°02'5218.1
2016-Jun-18 14:33N 50°18' W 006°00'1817.9
2016-Jun-18 13:33N 50°36' W 006°00'9218.4
2016-Jun-18 08:33N 52°08' W 005°51'11616.2
2016-Jun-18 01:26N 54°02' W 005°18'9 8.2
2016-Jun-18 00:21N 54°10' W 005°14'7 9.3
2016-Jun-17 23:34N 54°17' W 005°14'1111.1
2016-Jun-17 22:34N 54°29' W 005°14'1111.2
2016-Jun-17 21:34N 54°40' W 005°16'1212.0
2016-Jun-17 20:34N 54°51' W 005°21'1211.8
2016-Jun-17 19:33N 55°03' W 005°19'2311.3
2016-Jun-17 17:31N 55°24' W 005°01'8 8.6
2016-Jun-17 16:33N 55°32' W 004°60'1212.0
2016-Jun-17 15:33N 55°44' W 004°59'1515.2
2016-Jun-17 14:34N 55°59' W 004°53'8 7.6
2016-Jun-17 13:34N 56°06' W 004°51'  
Track history (hours):
 
Tides and Currents Weather Stations Pressure Air Temp Water Temp Dewpoint Dewpoint Depression Visibility Wind Speed Wind Dir Waves Ship Positions

Hartland Point

Last reported at 2016-Jun-27 02:12 UTC. Time now 2016-Jun-29 22:00 UTC.
Position N 31°20' E 032°23'.

Length 193 m; draft 6 m.

Type: Ship. MMSI: 235505000.

Date/timePositionNaut miles runAvg speedWind from/ knotsBaromVisibWave heightAir tempDewpointWater temp
2016-Jun-27 02:12N 31°20' E 032°23'4 5.7
2016-Jun-27 01:33N 31°23' E 032°21'4 0.9
2016-Jun-26 21:32N 31°24' E 032°17'0 0.0
2016-Jun-26 20:04N 31°24' E 032°17'0 0.0
2016-Jun-26 16:32N 31°24' E 032°17'3 3.1
2016-Jun-26 15:34N 31°27' E 032°17'1312.9
2016-Jun-26 14:33N 31°38' E 032°25'1010.3
2016-Jun-26 13:34N 31°43' E 032°36'1110.5
2016-Jun-26 12:33N 31°53' E 032°37'1110.5
2016-Jun-26 11:33N 32°04' E 032°39'3110.3
2016-Jun-26 08:33N 32°34' E 032°46'1510.4
2016-Jun-26 07:07N 32°49' E 032°49'610.2
2016-Jun-26 06:34N 32°55' E 032°50'1010.2
2016-Jun-26 05:33N 33°05' E 032°52'1010.3
2016-Jun-26 04:33N 33°15' E 032°54'1010.3
2016-Jun-26 03:33N 33°25' E 032°56'1110.5
2016-Jun-26 02:32N 33°36' E 032°58'1110.7
2016-Jun-26 01:33N 33°46' E 033°00'1110.7
2016-Jun-26 00:33N 33°56' E 033°02'1110.8
2016-Jun-25 23:31N 34°07' E 033°05'1010.9
2016-Jun-25 22:34N 34°18' E 033°07'1110.7
2016-Jun-25 21:33N 34°28' E 033°09'10 9.6
2016-Jun-25 20:33N 34°37' E 033°05'4 0.5
2016-Jun-25 13:15N 34°39' E 033°01'0 0.0
2016-Jun-25 12:34N 34°39' E 033°01'8 8.4
2016-Jun-25 11:33N 34°35' E 033°10'1413.9
2016-Jun-25 10:33N 34°30' E 032°55'1615.5
2016-Jun-25 09:33N 34°30' E 032°36'1615.8
2016-Jun-25 08:33N 34°31' E 032°16'1615.8
2016-Jun-25 07:33N 34°31' E 031°57'1918.6
2016-Jun-25 06:33N 34°32' E 031°35'2019.4
2016-Jun-25 05:32N 34°32' E 031°11'12419.6
2016-Jun-24 23:11N 34°35' E 028°40'1219.2
2016-Jun-24 22:33N 34°35' E 028°25'4019.4
2016-Jun-24 20:31N 34°36' E 027°37'1919.7
2016-Jun-24 19:33N 34°36' E 027°14'40017.3
2016-Jun-23 20:30N 35°34' E 019°11'20919.1
2016-Jun-23 09:33N 36°20' E 014°59'1919.2
2016-Jun-23 08:33N 36°24' E 014°36'2019.6
2016-Jun-23 07:33N 36°30' E 014°13'3919.6
2016-Jun-23 05:33N 36°42' E 013°26'2119.7
2016-Jun-23 04:29N 36°47' E 013°01'1819.3
2016-Jun-23 03:33N 36°52' E 012°39'36319.1
2016-Jun-22 08:33N 37°31' E 005°06'1918.8
2016-Jun-22 07:32N 37°27' E 004°42'6019.0
2016-Jun-22 04:23N 37°16' E 003°28'2019.2
2016-Jun-22 03:21N 37°12' E 003°04'1519.0
2016-Jun-22 02:33N 37°09' E 002°45'2018.9
2016-Jun-22 01:31N 37°05' E 002°21'1818.8
2016-Jun-22 00:33N 37°02' E 001°59'2019.2
2016-Jun-21 23:31N 36°58' E 001°34'1918.4
2016-Jun-21 22:29N 36°54' E 001°11'1718.1
2016-Jun-21 21:33N 36°51' E 000°50'1817.8
2016-Jun-21 20:33N 36°47' E 000°29'1817.6
2016-Jun-21 19:32N 36°43' E 000°07'1817.9
2016-Jun-21 18:32N 36°40' W 000°15'1918.2
2016-Jun-21 17:31N 36°37' W 000°38'1916.4
2016-Jun-21 16:23N 36°33' W 001°01'1313.0
2016-Jun-21 15:24N 36°31' W 001°16'3411.9
2016-Jun-21 12:33N 36°24' W 001°58'1511.7
2016-Jun-21 11:14N 36°22' W 002°17'5 7.5
2016-Jun-21 10:33N 36°21' W 002°23'8 7.4
2016-Jun-21 09:31N 36°20' W 002°32'12917.8
2016-Jun-21 02:14N 36°00' W 005°11'1319.8
2016-Jun-21 01:33N 35°57' W 005°27'1616.4
2016-Jun-21 00:34N 35°53' W 005°46'8917.0
2016-Jun-20 19:19N 36°09' W 007°35'1518.5
2016-Jun-20 18:30N 36°13' W 007°53'1718.5
2016-Jun-20 17:34N 36°19' W 008°13'1818.4
2016-Jun-20 16:34N 36°24' W 008°35'1312.6
2016-Jun-20 15:33N 36°27' W 008°50'8 8.0
2016-Jun-20 14:33N 36°30' W 008°60'1716.6
2016-Jun-20 13:34N 36°35' W 009°19'1818.1
2016-Jun-20 12:34N 36°49' W 009°34'1918.7
2016-Jun-20 11:34N 37°07' W 009°39'1817.4
2016-Jun-20 10:33N 37°24' W 009°44'1413.9
2016-Jun-20 09:33N 37°38' W 009°47'1818.7
2016-Jun-20 08:33N 37°56' W 009°53'1918.5
2016-Jun-20 07:33N 38°14' W 010°00'1818.4
2016-Jun-20 06:33N 38°32' W 010°04'1818.4
2016-Jun-20 05:33N 38°50' W 010°08'2018.6
2016-Jun-20 04:30N 39°10' W 010°08'64118.3
2016-Jun-18 17:25N 49°26' W 006°02'5218.1
2016-Jun-18 14:33N 50°18' W 006°00'1817.9
2016-Jun-18 13:33N 50°36' W 006°00'9218.4
2016-Jun-18 08:33N 52°08' W 005°51'11616.2
2016-Jun-18 01:26N 54°02' W 005°18'9 8.2
2016-Jun-18 00:21N 54°10' W 005°14'7 9.3
2016-Jun-17 23:34N 54°17' W 005°14'1111.1
2016-Jun-17 22:34N 54°29' W 005°14'1111.2
2016-Jun-17 21:34N 54°40' W 005°16'1212.0
2016-Jun-17 20:34N 54°51' W 005°21'1211.8
2016-Jun-17 19:33N 55°03' W 005°19'2311.3
2016-Jun-17 17:31N 55°24' W 005°01'8 8.6
2016-Jun-17 16:33N 55°32' W 004°60'1212.0
2016-Jun-17 15:33N 55°44' W 004°59'1515.2
2016-Jun-17 14:34N 55°59' W 004°53'8 7.6
2016-Jun-17 13:34N 56°06' W 004°51'  

Dump ship's entire track history